Time;durP1;ratioP1;P1;durP2;ratioP2;P2;SDS_P1;SDS_P2;PMS_P1;PMS_P2;Temp;Humidity;BMP_temperature;BMP_pressure;BME280_temperature;BME280_humidity;BME280_pressure;Samples;Min_cycle;Max_cycle;Signal;HPM_P1;HPM_P2
2022/01/17 00:01:17;;;;;;;4.75;2.15;;;;;;;-5.32;78.87;97685.19;4774800;29;20049;-75
2022/01/17 00:03:42;;;;;;;5.78;2.75;;;;;;;-5.31;79.11;97690.31;4759175;29;20123;-77
2022/01/17 00:06:07;;;;;;;7.82;2.53;;;;;;;-5.35;78.23;97688.75;4759426;29;20443;-78
2022/01/17 00:08:33;;;;;;;8.43;1.95;;;;;;;-5.24;79.12;97667.53;4772685;29;20456;-76
2022/01/17 00:10:58;;;;;;;9.75;3.22;;;;;;;-5.40;78.78;97663.84;4774337;29;20041;-75
2022/01/17 00:13:29;;;;;;;3.88;2.67;;;;;;;-5.45;78.75;97650.22;4790451;29;20050;-76
2022/01/17 00:16:03;;;;;;;4.85;1.80;;;;;;;-5.41;79.22;97659.56;4770828;29;20035;-78
2022/01/17 00:21:03;;;;;;;5.75;2.25;;;;;;;-5.33;78.61;97652.31;4789528;29;20053;-79
2022/01/17 00:23:28;;;;;;;8.15;2.47;;;;;;;-5.24;79.49;97642.41;4789365;29;20038;-75
2022/01/17 00:25:53;;;;;;;7.97;2.50;;;;;;;-5.27;78.58;97626.94;4790107;29;20046;-78
2022/01/17 00:28:18;;;;;;;4.07;1.73;;;;;;;-5.23;78.68;97599.09;4760158;29;20034;-77
2022/01/17 00:30:43;;;;;;;5.13;2.20;;;;;;;-5.15;78.32;97602.22;4773482;29;20555;-75
2022/01/17 00:33:08;;;;;;;8.85;2.30;;;;;;;-5.03;78.73;97612.09;4790737;29;20041;-78
2022/01/17 00:35:33;;;;;;;4.05;1.38;;;;;;;-4.73;79.05;97585.72;4759006;29;20050;-75
2022/01/17 00:37:57;;;;;;;5.28;2.38;;;;;;;-4.82;78.12;97582.63;4770552;29;20126;-75
2022/01/17 00:40:22;;;;;;;5.45;1.77;;;;;;;-4.74;78.45;97563.25;4758686;29;20050;-76
2022/01/17 00:42:47;;;;;;;6.30;2.30;;;;;;;-4.81;77.66;97562.66;4791603;29;20125;-75
2022/01/17 00:45:13;;;;;;;5.95;2.22;;;;;;;-4.75;77.51;97552.03;4774690;29;20046;-75
2022/01/17 00:48:07;;;;;;;9.45;2.35;;;;;;;-4.79;77.17;97555.66;4787435;29;20125;-78
2022/01/17 00:50:37;;;;;;;6.88;3.17;;;;;;;-4.74;76.94;97547.66;4770131;29;20053;-74
2022/01/17 00:53:03;;;;;;;3.47;2.08;;;;;;;-4.64;77.10;97543.75;4804760;29;20060;-76
2022/01/17 00:55:27;;;;;;;4.43;2.28;;;;;;;-4.49;77.59;97536.09;4803215;29;20052;-77
2022/01/17 00:57:52;;;;;;;5.13;1.75;;;;;;;-4.64;76.23;97523.78;4811477;29;20037;-74
2022/01/17 01:00:17;;;;;;;3.05;2.03;;;;;;;-4.57;76.43;97521.75;4812697;29;20049;-76
2022/01/17 01:02:42;;;;;;;4.20;1.90;;;;;;;-4.47;76.53;97502.22;4817722;29;20109;-76
2022/01/17 01:05:08;;;;;;;3.38;2.17;;;;;;;-4.49;76.30;97498.84;4803759;29;20049;-76
2022/01/17 01:07:33;;;;;;;5.18;2.33;;;;;;;-4.30;77.25;97504.06;4810890;29;20046;-77
2022/01/17 01:10:05;;;;;;;4.50;1.80;;;;;;;-4.35;76.92;97509.47;4816068;29;20034;-75
2022/01/17 01:12:30;;;;;;;1.98;1.58;;;;;;;-4.39;75.39;97492.31;4801389;29;20053;-76
2022/01/17 01:14:56;;;;;;;3.85;2.00;;;;;;;-4.37;75.62;97485.28;4802546;29;20473;-75
2022/01/17 01:17:36;;;;;;;3.13;1.88;;;;;;;-4.37;75.21;97474.88;4828869;29;20070;-74
2022/01/17 01:28:26;;;;;;;8.73;1.90;;;;;;;-4.19;75.22;97463.63;4735888;30;20909;-76
2022/01/17 01:30:54;;;;;;;4.95;2.35;;;;;;;-4.20;74.74;97454.13;4721954;30;20414;-75
2022/01/17 01:33:32;;;;;;;1.55;1.42;;;;;;;-4.11;75.73;97448.47;4751671;30;20066;-76
2022/01/17 01:36:05;;;;;;;7.97;2.63;;;;;;;-4.14;74.62;97456.44;4720964;30;20094;-78
2022/01/17 01:38:30;;;;;;;1.58;0.85;;;;;;;-4.14;75.04;97448.63;4736681;30;20055;-75
2022/01/17 01:40:55;;;;;;;2.17;1.60;;;;;;;-4.18;74.66;97446.25;4733867;30;20104;-77
2022/01/17 01:43:20;;;;;;;7.13;2.75;;;;;;;-4.27;73.92;97442.31;4721109;30;20471;-78
2022/01/17 01:45:49;;;;;;;7.53;1.90;;;;;;;-4.18;73.91;97439.31;4736396;30;20086;-76
2022/01/17 01:48:15;;;;;;;5.85;2.05;;;;;;;-4.20;73.51;97430.72;4734697;30;20051;-78
2022/01/17 01:50:40;;;;;;;4.10;2.20;;;;;;;-4.24;73.43;97425.72;4721845;30;20518;-78
2022/01/17 01:53:04;;;;;;;4.05;2.05;;;;;;;-4.21;72.77;97441.19;4721767;30;20105;-74
2022/01/17 01:55:29;;;;;;;6.22;2.22;;;;;;;-4.20;73.21;97417.72;4707640;30;20079;-74
2022/01/17 01:57:54;;;;;;;5.20;2.25;;;;;;;-4.07;74.13;97425.78;4752937;30;20039;-77
2022/01/17 02:00:19;;;;;;;2.72;2.20;;;;;;;-4.22;73.11;97418.69;4772340;29;20053;-77
2022/01/17 02:02:44;;;;;;;3.40;1.20;;;;;;;-4.02;74.60;97403.78;4794839;29;20042;-75
2022/01/17 02:05:09;;;;;;;4.93;2.00;;;;;;;-4.05;73.54;97392.69;4794284;29;20052;-78
2022/01/17 02:07:35;;;;;;;5.68;2.15;;;;;;;-4.17;72.17;97398.50;4809460;29;20049;-79
2022/01/17 02:09:59;;;;;;;3.95;1.58;;;;;;;-4.19;72.62;97379.53;4789066;29;20042;-69
2022/01/17 02:12:28;;;;;;;2.95;1.55;;;;;;;-4.18;72.87;97374.25;4774373;29;20045;-69
2022/01/17 02:14:54;;;;;;;3.63;1.88;;;;;;;-4.32;72.07;97358.47;4806411;29;20049;-69
2022/01/17 02:17:20;;;;;;;3.35;2.00;;;;;;;-4.38;72.55;97354.41;4774965;29;20849;-69
2022/01/17 02:19:46;;;;;;;4.80;2.60;;;;;;;-4.25;72.67;97343.41;4805896;29;20137;-69
2022/01/17 02:22:13;;;;;;;5.80;2.08;;;;;;;-4.34;72.52;97349.91;4805617;29;20053;-69
2022/01/17 02:24:38;;;;;;;6.90;2.28;;;;;;;-4.36;72.20;97349.13;4805837;29;20057;-68
2022/01/17 02:27:03;;;;;;;6.53;1.42;;;;;;;-4.28;72.10;97347.00;4788994;29;20038;-67
2022/01/17 02:29:29;;;;;;;5.75;2.13;;;;;;;-4.33;72.19;97317.78;4805712;29;20622;-67
2022/01/17 02:31:54;;;;;;;3.47;2.33;;;;;;;-4.21;72.48;97317.19;4805542;29;20045;-67
2022/01/17 02:34:19;;;;;;;3.90;1.48;;;;;;;-4.32;72.34;97314.25;4805490;29;20064;-65
2022/01/17 02:36:45;;;;;;;2.55;1.88;;;;;;;-4.32;72.11;97311.66;4805673;29;20157;-71
2022/01/17 02:39:10;;;;;;;3.60;1.77;;;;;;;-4.30;71.95;97299.44;4789276;29;20045;-67
2022/01/17 02:41:38;;;;;;;5.00;2.58;;;;;;;-4.27;72.34;97294.06;4806388;29;20046;-69
2022/01/17 02:44:03;;;;;;;7.35;1.83;;;;;;;-4.20;72.73;97289.41;4777636;29;20046;-72
2022/01/17 02:46:29;;;;;;;2.63;1.58;;;;;;;-4.29;71.90;97279.47;4805519;29;20045;-72
2022/01/17 02:48:56;;;;;;;3.78;1.88;;;;;;;-4.25;72.60;97280.97;4805449;29;20045;-72
2022/01/17 02:51:21;;;;;;;6.38;2.20;;;;;;;-4.30;72.07;97277.78;4789189;29;20095;-72
2022/01/17 02:53:46;;;;;;;4.32;2.58;;;;;;;-4.04;73.69;97285.94;4788109;29;20069;-71
2022/01/17 02:56:11;;;;;;;5.97;2.00;;;;;;;-4.02;74.30;97262.44;4805266;29;20086;-73
2022/01/17 02:58:38;;;;;;;4.43;1.67;;;;;;;-4.11;73.13;97268.13;4789268;29;20637;-70
2022/01/17 03:01:06;;;;;;;4.85;1.95;;;;;;;-4.19;72.43;97255.50;4805994;29;20046;-76
2022/01/17 03:03:31;;;;;;;6.47;1.60;;;;;;;-4.08;73.40;97253.19;4805128;29;20171;-71
2022/01/17 03:05:57;;;;;;;2.92;1.08;;;;;;;-4.09;74.00;97248.91;4805664;29;20117;-70
2022/01/17 03:08:24;;;;;;;5.13;2.58;;;;;;;-4.24;72.24;97247.09;4805365;29;20516;-71
2022/01/17 03:10:51;;;;;;;4.55;2.40;;;;;;;-4.43;72.07;97247.19;4800138;29;20056;-71
2022/01/17 03:13:21;;;;;;;5.72;2.40;;;;;;;-4.48;71.85;97258.72;4807080;29;20046;-71
2022/01/17 03:15:53;;;;;;;6.10;2.25;;;;;;;-4.44;72.02;97244.66;4823998;29;20077;-70
2022/01/17 03:18:18;;;;;;;2.25;0.88;;;;;;;-4.29;73.42;97245.66;4822890;29;20114;-70
2022/01/17 03:20:42;;;;;;;5.65;2.88;;;;;;;-4.42;72.30;97237.63;4806050;29;20045;-70
2022/01/17 03:23:08;;;;;;;7.15;2.22;;;;;;;-4.27;72.68;97229.03;4791787;29;20468;-69
2022/01/17 03:25:33;;;;;;;2.47;1.08;;;;;;;-4.17;73.23;97225.03;4807018;29;20053;-76
2022/01/17 03:27:58;;;;;;;9.77;1.90;;;;;;;-4.26;72.69;97225.50;4825035;29;20046;-76
2022/01/17 03:30:23;;;;;;;1.77;1.10;;;;;;;-4.25;73.07;97227.19;4823595;29;20265;-74
2022/01/17 03:32:48;;;;;;;6.75;2.65;;;;;;;-4.24;72.64;97218.47;4806363;29;20132;-73
2022/01/17 03:35:14;;;;;;;5.80;2.25;;;;;;;-4.18;73.36;97215.56;4806594;29;20057;-70
2022/01/17 03:37:39;;;;;;;3.70;1.48;;;;;;;-4.27;72.20;97205.63;4806591;29;20060;-70
2022/01/17 03:40:05;;;;;;;4.57;2.08;;;;;;;-4.31;72.46;97206.72;4818249;29;20497;-73
2022/01/17 03:42:30;;;;;;;5.75;2.90;;;;;;;-4.24;72.92;97195.06;4789039;29;20050;-69
2022/01/17 03:44:54;;;;;;;5.97;2.47;;;;;;;-4.19;72.42;97192.25;4788889;29;20049;-70
2022/01/17 03:47:19;;;;;;;2.33;1.48;;;;;;;-4.31;72.19;97185.91;4788967;29;20042;-72
2022/01/17 03:49:44;;;;;;;6.28;2.83;;;;;;;-4.26;72.41;97170.03;4789081;29;20050;-72
2022/01/17 03:52:09;;;;;;;3.47;2.05;;;;;;;-4.24;72.67;97163.84;4806164;29;20066;-71
2022/01/17 03:54:34;;;;;;;4.57;3.00;;;;;;;-4.42;71.75;97162.22;4805468;29;20057;-73
2022/01/17 03:56:59;;;;;;;5.30;2.30;;;;;;;-4.34;72.49;97159.22;4805550;29;20132;-70
2022/01/17 03:59:24;;;;;;;3.15;1.73;;;;;;;-4.38;72.07;97151.56;4805476;29;20137;-71
2022/01/17 04:01:50;;;;;;;3.47;2.03;;;;;;;-4.37;72.23;97162.81;4789333;29;20046;-69
2022/01/17 04:04:14;;;;;;;5.30;2.38;;;;;;;-4.33;72.24;97148.72;4773674;29;20054;-68
2022/01/17 04:06:40;;;;;;;8.70;2.22;;;;;;;-4.21;72.67;97140.28;4807135;29;20057;-66
2022/01/17 04:09:04;;;;;;;7.90;2.90;;;;;;;-4.07;74.29;97129.16;4792823;29;20102;-76
2022/01/17 04:11:29;;;;;;;5.57;2.22;;;;;;;-4.32;71.58;97129.59;4808765;29;20046;-76
2022/01/17 04:13:54;;;;;;;4.60;2.13;;;;;;;-4.31;72.62;97115.69;4783066;29;20042;-75
2022/01/17 04:16:18;;;;;;;2.72;1.85;;;;;;;-4.10;73.35;97118.91;4793635;29;20106;-76
2022/01/17 04:18:43;;;;;;;8.85;2.95;;;;;;;-4.34;71.68;97115.00;4825486;29;20417;-74
2022/01/17 04:21:08;;;;;;;6.05;2.35;;;;;;;-4.24;72.52;97095.38;4825133;29;20052;-75
2022/01/17 04:23:33;;;;;;;5.60;2.38;;;;;;;-4.15;72.49;97095.72;4825746;29;20055;-74
2022/01/17 04:25:58;;;;;;;3.55;1.75;;;;;;;-4.05;73.16;97096.06;4825532;29;20041;-74
2022/01/17 04:28:22;;;;;;;2.40;1.35;;;;;;;-4.13;72.36;97083.47;4825454;29;20049;-74
2022/01/17 04:30:47;;;;;;;3.60;2.20;;;;;;;-4.20;71.06;97082.16;4825305;29;20045;-74
2022/01/17 04:33:13;;;;;;;6.60;3.13;;;;;;;-4.05;73.00;97070.06;4825565;29;20137;-75
2022/01/17 04:35:39;;;;;;;7.28;2.60;;;;;;;-4.21;71.68;97059.66;4825231;29;20160;-74
2022/01/17 04:38:07;;;;;;;6.07;2.17;;;;;;;-4.16;72.50;97055.03;4808304;29;20045;-74
2022/01/17 04:40:37;;;;;;;3.15;1.45;;;;;;;-4.22;73.26;97051.94;4823056;29;20073;-78
2022/01/17 10:57:49;;;;;;;14.25;6.90;;;;;;;-2.96;83.12;96493.09;5720969;24;20058;31
2022/01/17 11:00:21;;;;;;;8.85;4.35;;;;;;;-2.98;83.07;96488.91;4748305;30;20103;-67
2022/01/17 11:02:51;;;;;;;14.38;8.30;;;;;;;-3.12;82.73;96479.41;4751541;30;20058;-69
2022/01/17 11:05:17;;;;;;;18.40;7.65;;;;;;;-3.11;82.16;96473.25;4765368;29;20112;-64
2022/01/17 11:07:45;;;;;;;13.18;7.10;;;;;;;-3.15;82.43;96479.59;4751778;29;20052;-66
2022/01/17 11:10:19;;;;;;;16.48;8.38;;;;;;;-3.19;81.63;96477.31;4751371;29;20051;-65
2022/01/17 11:12:44;;;;;;;9.60;5.70;;;;;;;-3.07;81.71;96484.31;4751674;29;20095;-65
2022/01/17 11:15:11;;;;;;;11.82;6.63;;;;;;;-3.07;81.90;96477.34;4766940;29;20391;-66
2022/01/17 11:17:39;;;;;;;16.65;8.93;;;;;;;-3.25;81.60;96475.94;4768945;29;20522;-67
2022/01/17 11:20:08;;;;;;;16.63;7.75;;;;;;;-3.07;82.23;96464.31;4754961;30;20075;-67
2022/01/17 11:22:44;;;;;;;16.15;9.20;;;;;;;-3.06;82.32;96455.56;4755468;29;20158;-67
2022/01/17 11:25:21;;;;;;;10.40;6.68;;;;;;;-3.03;82.09;96457.09;4755316;29;20051;-67
2022/01/17 11:27:46;;;;;;;14.43;8.48;;;;;;;-3.04;82.14;96456.25;4768768;29;20138;-72
2022/01/17 11:30:12;;;;;;;14.32;7.55;;;;;;;-2.95;82.15;96454.81;4768615;29;20050;-67
2022/01/17 11:32:37;;;;;;;15.32;7.97;;;;;;;-3.08;82.31;96460.03;4755154;30;20054;-66
2022/01/17 11:35:04;;;;;;;16.10;8.27;;;;;;;-3.06;81.72;96454.72;4768837;29;20054;-66
2022/01/17 11:37:39;;;;;;;20.58;10.80;;;;;;;-3.16;81.52;96448.47;4754984;29;20047;-69
2022/01/17 11:40:09;;;;;;;18.83;9.25;;;;;;;-3.10;82.38;96442.81;4754814;30;20051;-66
2022/01/17 11:42:46;;;;;;;16.02;8.80;;;;;;;-2.89;82.50;96443.97;4754778;30;20498;-66
2022/01/17 11:45:21;;;;;;;16.92;7.78;;;;;;;-2.91;82.18;96440.63;4754517;30;20074;-67
2022/01/17 11:47:55;;;;;;;18.25;9.82;;;;;;;-3.09;82.40;96432.31;4756512;30;20047;-67
2022/01/17 11:50:30;;;;;;;17.33;8.02;;;;;;;-2.92;82.94;96428.53;4757594;30;20040;-68
2022/01/17 11:52:57;;;;;;;15.57;8.80;;;;;;;-3.05;82.68;96430.34;4772800;29;20059;-68
2022/01/17 11:58:21;;;;;;;17.45;10.82;;;;;;;-3.13;83.36;96423.03;4736729;30;20048;-66
2022/01/17 12:00:46;;;;;;;13.95;7.07;;;;;;;-3.00;83.02;96423.03;4750811;30;20051;-66
2022/01/17 12:03:20;;;;;;;17.60;8.30;;;;;;;-2.94;82.74;96427.81;4735465;30;20527;-66
2022/01/17 12:05:45;;;;;;;13.90;7.53;;;;;;;-2.96;83.26;96427.94;4736267;30;20101;-67
2022/01/17 12:08:14;;;;;;;15.48;7.50;;;;;;;-2.96;82.32;96421.88;4736418;30;20055;-67
2022/01/17 12:10:45;;;;;;;16.17;7.93;;;;;;;-3.03;83.04;96423.22;4735104;30;20048;-66
2022/01/17 12:13:18;;;;;;;15.27;8.00;;;;;;;-3.16;83.83;96427.63;4735474;30;20051;-67
2022/01/17 12:16:15;;;;;;;16.48;9.10;;;;;;;-3.17;83.77;96423.34;4737057;30;20044;-69
2022/01/17 12:18:47;;;;;;;20.60;9.35;;;;;;;-3.13;83.19;96420.41;4735280;30;20063;-65
2022/01/17 12:21:21;;;;;;;15.55;8.07;;;;;;;-3.13;83.21;96415.22;4749879;30;20093;-66
2022/01/17 12:23:47;;;;;;;17.33;11.95;;;;;;;-3.30;83.21;96403.34;4736163;30;20056;-66
2022/01/17 12:26:32;;;;;;;18.95;8.90;;;;;;;-3.19;83.63;96399.19;4740062;30;20464;-65
2022/01/17 12:29:00;;;;;;;16.00;8.73;;;;;;;-3.05;83.75;96404.28;4752427;30;20047;-67
2022/01/17 12:31:47;;;;;;;11.90;5.78;;;;;;;-3.03;84.06;96399.78;4753720;30;20054;-65
2022/01/17 12:34:24;;;;;;;11.05;7.47;;;;;;;-3.02;84.23;96404.03;4753568;30;20396;-66
2022/01/17 12:36:52;;;;;;;21.90;11.68;;;;;;;-3.16;84.09;96406.78;4752277;30;20117;-66
2022/01/17 12:39:22;;;;;;;14.60;7.32;;;;;;;-3.04;84.26;96413.72;4753570;29;20051;-66
2022/01/17 12:41:52;;;;;;;17.25;8.00;;;;;;;-3.10;84.24;96409.78;4752987;30;20542;-67
2022/01/17 12:44:22;;;;;;;18.40;7.65;;;;;;;-2.84;83.70;96404.56;4753472;30;20125;-66
2022/01/17 12:46:54;;;;;;;17.08;10.00;;;;;;;-3.11;84.03;96396.88;4753132;30;20058;-65
2022/01/17 12:49:21;;;;;;;19.17;9.88;;;;;;;-3.14;84.18;96386.66;4752188;30;20513;-65
2022/01/17 12:51:49;;;;;;;20.58;7.80;;;;;;;-3.07;84.13;96393.13;4753197;29;20074;-66
2022/01/17 12:54:16;;;;;;;16.23;8.68;;;;;;;-2.95;83.68;96387.91;4753006;30;20134;-66
2022/01/17 12:56:48;;;;;;;13.50;7.88;;;;;;;-2.94;84.24;96380.91;4736565;30;20112;-67
2022/01/17 12:59:17;;;;;;;14.93;8.60;;;;;;;-2.86;83.48;96375.16;4753295;30;20059;-66
2022/01/17 13:01:57;;;;;;;15.68;9.80;;;;;;;-3.01;84.51;96387.47;4753322;29;20054;-66
2022/01/17 13:04:22;;;;;;;12.50;6.82;;;;;;;-2.98;84.09;96388.09;4752932;29;20055;-66
2022/01/17 13:06:51;;;;;;;21.98;10.02;;;;;;;-3.12;84.67;96385.63;4753029;30;20058;-65
2022/01/17 13:09:23;;;;;;;14.30;8.57;;;;;;;-3.17;83.37;96392.09;4752362;29;20051;-66
2022/01/17 13:11:50;;;;;;;15.35;7.85;;;;;;;-2.99;84.54;96404.69;4751912;30;20508;-66
2022/01/17 13:14:18;;;;;;;15.60;7.03;;;;;;;-2.89;84.67;96393.59;4752779;29;20046;-65
2022/01/17 13:16:45;;;;;;;21.17;10.20;;;;;;;-2.95;84.14;96397.50;4752680;29;20399;-66
2022/01/17 13:19:12;;;;;;;21.60;10.10;;;;;;;-3.08;84.75;96389.69;4751090;30;20047;-66
2022/01/17 13:21:40;;;;;;;15.38;7.90;;;;;;;-3.07;84.62;96393.13;4751314;30;20525;-66
2022/01/17 13:24:15;;;;;;;15.75;9.23;;;;;;;-3.01;84.54;96390.91;4752698;30;20054;-67
2022/01/17 13:26:47;;;;;;;18.33;11.18;;;;;;;-3.06;84.41;96398.22;4752578;30;20082;-66
2022/01/17 13:29:13;;;;;;;17.88;10.77;;;;;;;-2.82;85.24;96394.88;4752264;29;20090;-65
2022/01/17 13:31:41;;;;;;;21.27;11.95;;;;;;;-2.94;84.79;96394.78;4752882;30;20047;-69
2022/01/17 13:34:22;;;;;;;24.58;12.52;;;;;;;-2.96;84.31;96396.66;4751115;30;20047;-69
2022/01/17 13:36:49;;;;;;;21.80;12.93;;;;;;;-2.96;84.25;96401.88;4752587;30;20116;-69
2022/01/17 13:39:25;;;;;;;17.50;11.40;;;;;;;-2.87;84.34;96397.78;4751064;29;20134;-69
2022/01/17 13:41:53;;;;;;;21.58;13.30;;;;;;;-2.94;83.65;96392.19;4752595;29;20138;-70
2022/01/17 13:44:31;;;;;;;17.25;10.93;;;;;;;-2.91;83.58;96398.94;4752544;29;20562;-70
2022/01/17 13:47:07;;;;;;;15.27;9.40;;;;;;;-2.75;84.31;96383.06;4752034;29;20058;-69
2022/01/17 13:49:52;;;;;;;16.75;9.90;;;;;;;-2.73;84.47;96397.66;4736163;30;20051;-66
2022/01/17 13:52:18;;;;;;;;;;;;;;;-2.66;84.42;96393.66;4751333;30;20503;-66
2022/01/17 13:54:51;;;;;;;19.00;9.75;;;;;;;-2.83;83.35;96393.19;4750331;30;20516;-65
2022/01/17 13:57:26;;;;;;;15.20;9.57;;;;;;;-2.79;83.32;96385.03;4736010;30;20054;-66
2022/01/17 14:00:04;;;;;;;20.33;10.75;;;;;;;-2.72;84.14;96382.84;4750155;30;20063;-66
2022/01/17 14:02:38;;;;;;;24.40;13.05;;;;;;;-2.72;84.25;96381.06;4736030;30;20423;-66
2022/01/17 14:05:10;;;;;;;15.93;9.43;;;;;;;-2.63;83.78;96388.25;4751801;30;20055;-66
2022/01/17 14:07:36;;;;;;;25.45;11.57;;;;;;;-2.68;84.11;96419.00;4751818;30;20303;-65
2022/01/17 14:10:19;;;;;;;21.63;11.40;;;;;;;-2.58;84.41;96422.63;4751947;30;20054;-66
2022/01/17 14:12:44;;;;;;;17.83;9.52;;;;;;;-2.65;83.86;96426.63;4752369;30;20051;-66
2022/01/17 14:15:08;;;;;;;14.43;8.15;;;;;;;-2.54;84.64;96430.25;4751764;30;20097;-65
2022/01/17 14:17:34;;;;;;;16.63;10.38;;;;;;;-2.60;84.82;96450.63;4751143;30;20503;-66
2022/01/17 14:20:10;;;;;;;13.88;9.55;;;;;;;-2.71;83.88;96415.81;4751672;29;20043;-66
2022/01/17 14:22:46;;;;;;;9.90;5.75;;;;;;;-2.50;84.33;96392.59;4751830;30;20059;-66
2022/01/17 14:25:24;;;;;;;15.50;8.77;;;;;;;-2.64;83.99;96362.28;4751641;29;20070;-66
2022/01/17 14:28:04;;;;;;;13.50;7.25;;;;;;;-2.43;84.05;96347.69;4751284;30;20089;-66
2022/01/17 14:30:34;;;;;;;18.70;9.65;;;;;;;-2.68;83.74;96353.81;4752213;30;20043;-68
2022/01/17 14:33:10;;;;;;;14.85;8.82;;;;;;;-2.65;84.00;96356.22;4751099;30;20056;-68
2022/01/17 14:35:36;;;;;;;17.48;9.23;;;;;;;-2.78;84.32;96367.63;4752183;29;20495;-68
2022/01/17 14:38:00;;;;;;;26.35;14.10;;;;;;;-2.82;84.41;96374.81;4750992;30;20511;-65
2022/01/17 14:40:31;;;;;;;17.15;11.68;;;;;;;-2.68;84.28;96364.25;4752250;29;20089;-65
2022/01/17 14:43:10;;;;;;;15.80;8.95;;;;;;;-2.73;83.81;96365.53;4752678;30;20050;-66
2022/01/17 14:45:34;;;;;;;14.95;7.68;;;;;;;-2.56;83.94;96362.56;4752318;30;20888;-67
2022/01/17 14:48:13;;;;;;;13.02;7.55;;;;;;;-2.44;83.97;96356.47;4752065;30;20483;-67
2022/01/17 14:50:39;;;;;;;11.13;7.30;;;;;;;-2.37;83.32;96347.22;4751482;30;20048;-67
2022/01/17 14:53:04;;;;;;;24.92;11.45;;;;;;;-2.69;83.49;96335.69;4750296;30;20055;-67
2022/01/17 15:01:11;;;;;;;14.48;7.43;;;;;;;-2.59;83.71;96332.31;4752414;29;20196;-67
2022/01/17 15:03:38;;;;;;;23.02;12.05;;;;;;;-2.97;83.45;96319.41;4721877;30;20138;-66
2022/01/17 15:06:04;;;;;;;19.02;11.68;;;;;;;-2.83;83.87;96317.59;4736683;30;20054;-66
2022/01/17 15:08:30;;;;;;;19.08;11.57;;;;;;;-2.90;84.73;96319.81;4753238;29;20057;-68
2022/01/17 15:10:55;;;;;;;19.85;10.02;;;;;;;-2.81;84.36;96328.72;4751598;30;20066;-67
2022/01/17 15:13:20;;;;;;;20.95;13.30;;;;;;;-2.82;84.51;96330.50;4752286;29;20059;-66
2022/01/17 15:15:45;;;;;;;11.93;6.28;;;;;;;-2.66;84.47;96331.09;4752496;30;20142;-65
2022/01/17 15:18:15;;;;;;;13.55;7.53;;;;;;;-2.84;84.13;96336.78;4751241;30;20059;-68
2022/01/17 15:20:45;;;;;;;14.48;7.72;;;;;;;-2.71;84.29;96330.56;4752797;29;20090;-67
2022/01/17 15:23:11;;;;;;;18.27;10.70;;;;;;;-2.69;84.36;96327.88;4736435;30;20055;-69
2022/01/17 15:25:36;;;;;;;16.92;9.73;;;;;;;-2.70;85.04;96332.25;4751884;29;20055;-69
2022/01/17 15:28:01;;;;;;;21.38;12.65;;;;;;;-2.86;84.46;96329.06;4735888;30;20081;-71
2022/01/17 15:30:32;;;;;;;24.05;10.73;;;;;;;-2.84;84.52;96340.22;4750341;30;20422;-70
2022/01/17 15:33:00;;;;;;;18.35;9.27;;;;;;;-2.74;84.84;96335.19;4750273;30;20036;-69
2022/01/17 15:35:28;;;;;;;16.70;10.57;;;;;;;-2.73;85.02;96331.66;4751857;30;20055;-70
2022/01/17 15:37:58;;;;;;;13.70;8.18;;;;;;;-2.71;85.33;96343.59;4750318;30;20050;-66
2022/01/17 15:40:26;;;;;;;23.23;13.40;;;;;;;-2.79;85.46;96342.50;4751750;29;20802;-69
2022/01/17 15:43:15;;;;;;;10.43;6.25;;;;;;;-2.67;85.73;96328.59;4750643;30;20051;-69
2022/01/17 15:45:41;;;;;;;19.45;10.85;;;;;;;-2.75;84.93;96344.78;4751865;30;20112;-70
2022/01/17 15:48:07;;;;;;;25.25;13.07;;;;;;;-2.64;85.30;96341.41;4751909;29;20054;-71
2022/01/17 15:50:34;;;;;;;14.73;8.05;;;;;;;-2.63;85.29;96343.09;4750276;30;20047;-70
2022/01/17 15:52:59;;;;;;;19.02;10.57;;;;;;;-2.51;84.98;96347.41;4751462;30;20043;-69
2022/01/17 15:55:27;;;;;;;17.48;9.82;;;;;;;-2.53;85.00;96354.50;4751335;30;20055;-69
2022/01/17 15:57:53;;;;;;;20.20;11.50;;;;;;;-2.63;84.98;96348.31;4751495;29;20403;-68
2022/01/17 16:00:22;;;;;;;18.58;11.10;;;;;;;-2.59;85.07;96352.34;4751757;29;20128;-72
2022/01/17 16:02:47;;;;;;;19.38;10.68;;;;;;;-2.63;84.80;96349.13;4755273;30;20051;-68
2022/01/17 16:05:16;;;;;;;17.27;9.45;;;;;;;-2.59;85.56;96355.78;4754640;29;20173;-68
2022/01/17 16:07:47;;;;;;;18.73;10.25;;;;;;;-2.67;85.60;96355.50;4754976;30;20053;-69
2022/01/17 16:10:12;;;;;;;16.48;10.52;;;;;;;-2.63;85.10;96351.75;4754890;30;20392;-67
2022/01/17 16:12:38;;;;;;;15.70;8.10;;;;;;;-2.48;85.74;96360.22;4757245;29;20568;-66
2022/01/17 16:15:05;;;;;;;18.98;11.52;;;;;;;-2.46;84.94;96352.28;4753539;30;20057;-67
2022/01/17 16:17:31;;;;;;;19.42;10.38;;;;;;;-2.60;85.45;96356.75;4752908;30;20128;-67
2022/01/17 16:19:57;;;;;;;22.30;13.40;;;;;;;-2.66;85.36;96361.53;4753001;30;20055;-67
2022/01/17 16:22:22;;;;;;;13.85;8.63;;;;;;;-2.34;85.44;96343.56;4753139;30;20078;-66
2022/01/17 16:24:47;;;;;;;19.77;11.18;;;;;;;-2.62;85.49;96349.97;4752795;30;20093;-67
2022/01/17 16:27:12;;;;;;;19.10;9.88;;;;;;;-2.62;85.84;96342.16;4752913;30;20121;-69
2022/01/17 16:29:37;;;;;;;20.17;11.55;;;;;;;-2.67;85.62;96347.69;4751176;30;20051;-69
2022/01/17 16:32:03;;;;;;;16.45;9.43;;;;;;;-2.45;85.98;96344.34;4754713;30;20046;-68
2022/01/17 16:34:28;;;;;;;13.95;8.05;;;;;;;-2.47;85.69;96341.03;4755359;29;20426;-71
2022/01/17 16:36:53;;;;;;;18.25;11.57;;;;;;;-2.43;85.48;96332.03;4757154;29;20119;-68
2022/01/17 16:39:23;;;;;;;16.98;7.28;;;;;;;-2.39;85.00;96330.06;4755690;29;20070;-66
2022/01/17 16:41:50;;;;;;;18.67;11.63;;;;;;;-2.44;85.05;96332.97;4754572;30;20055;-69
2022/01/17 16:44:18;;;;;;;14.35;7.07;;;;;;;-2.46;84.91;96327.03;4754361;30;20043;-69
2022/01/17 16:46:42;;;;;;;16.98;7.75;;;;;;;-2.51;85.65;96325.72;4754443;29;20055;-68
2022/01/17 16:49:08;;;;;;;16.45;9.32;;;;;;;-2.48;85.40;96322.91;4757678;29;20047;-68
2022/01/17 16:51:37;;;;;;;14.70;7.80;;;;;;;-2.36;85.86;96321.97;4755605;30;20549;-67
2022/01/17 16:54:03;;;;;;;15.25;8.55;;;;;;;-2.37;85.30;96320.34;4754146;30;20817;-67
2022/01/17 16:56:28;;;;;;;12.77;8.05;;;;;;;-2.38;85.76;96313.47;4753984;30;20059;-67
2022/01/17 16:58:53;;;;;;;11.60;7.05;;;;;;;-2.32;85.53;96321.66;4752138;30;20519;-67
2022/01/17 17:01:18;;;;;;;23.52;11.07;;;;;;;-2.45;85.31;96322.66;4751923;30;20051;-67
2022/01/17 17:03:43;;;;;;;18.33;9.90;;;;;;;-2.36;85.49;96312.38;4752246;30;20051;-66
2022/01/17 17:06:08;;;;;;;21.83;12.38;;;;;;;-2.31;85.64;96305.06;4752167;30;20423;-66
2022/01/17 17:08:33;;;;;;;16.65;8.85;;;;;;;-2.35;85.57;96306.22;4767037;29;20419;-67
2022/01/17 17:11:00;;;;;;;19.95;10.50;;;;;;;-2.37;85.28;96305.50;4753306;29;20402;-68
2022/01/17 17:13:25;;;;;;;22.88;12.38;;;;;;;-2.48;85.52;96302.03;4752699;30;20077;-67
2022/01/17 17:15:51;;;;;;;18.05;9.65;;;;;;;-2.45;85.83;96310.44;4751899;30;20047;-67
2022/01/17 17:18:16;;;;;;;19.70;11.93;;;;;;;-2.35;85.76;96305.41;4753322;30;20058;-66
2022/01/17 17:20:43;;;;;;;18.85;11.00;;;;;;;-2.49;86.14;96301.22;4752991;29;20142;-67
2022/01/17 17:23:08;;;;;;;15.32;10.63;;;;;;;-2.48;86.50;96304.66;4753119;29;20058;-67
2022/01/17 17:25:35;;;;;;;14.50;9.50;;;;;;;-2.43;86.44;96310.34;4751821;30;20062;-67
2022/01/17 17:28:00;;;;;;;12.38;6.63;;;;;;;-2.35;86.67;96313.22;4753046;29;20061;-68
2022/01/17 17:30:25;;;;;;;15.35;10.25;;;;;;;-2.40;86.33;96302.31;4751208;29;20035;-68
2022/01/17 17:32:50;;;;;;;22.00;10.90;;;;;;;-2.41;87.00;96309.28;4753096;29;20079;-68
2022/01/17 17:35:15;;;;;;;14.98;7.63;;;;;;;-2.22;86.65;96304.38;4751814;30;20120;-68
2022/01/17 17:37:41;;;;;;;18.45;10.57;;;;;;;-2.24;86.78;96305.44;4766751;29;20491;-68
2022/01/17 17:40:08;;;;;;;13.27;9.15;;;;;;;-2.12;86.04;96314.97;4752590;30;20058;-67
2022/01/17 17:42:36;;;;;;;18.95;10.65;;;;;;;-2.35;86.07;96321.03;4752598;30;20061;-66
2022/01/17 17:45:01;;;;;;;15.60;10.55;;;;;;;-2.41;86.53;96316.28;4752263;30;20075;-66
2022/01/17 17:47:27;;;;;;;20.50;10.32;;;;;;;-2.41;86.73;96316.28;4751705;29;20062;-66
2022/01/17 17:49:53;;;;;;;22.13;11.77;;;;;;;-2.43;86.26;96312.94;4765264;29;20039;-65
2022/01/17 17:52:19;;;;;;;18.40;10.32;;;;;;;-2.31;86.34;96314.66;4750223;30;20414;-67
2022/01/17 17:54:45;;;;;;;15.45;9.38;;;;;;;-2.33;86.36;96309.56;4751138;30;20042;-65
2022/01/17 17:57:12;;;;;;;17.02;10.43;;;;;;;-2.35;86.77;96324.47;4752591;29;20051;-67
2022/01/17 17:59:43;;;;;;;17.13;9.43;;;;;;;-2.26;86.80;96323.81;4751094;30;20058;-66
2022/01/17 18:02:10;;;;;;;19.55;11.88;;;;;;;-2.36;86.42;96321.97;4751085;30;20051;-65
2022/01/17 18:04:36;;;;;;;16.00;10.70;;;;;;;-2.27;86.33;96321.34;4752363;30;20146;-68